Time,TemperatureF,DewpointF,PressureIn,WindDirection,WindDirectionDegrees,WindSpeedMPH,WindSpeedGustMPH,Humidity,HourlyPrecipIn,Conditions,Clouds,dailyrainin,SoftwareType,DateUTC
2013-06-06 00:02:00,55.0,50.0,30.01,South,175,0.0,0.0,84,0.00,,,0.00,,2013-06-06 07:02:00,
2013-06-06 00:11:00,55.0,50.0,30.01,South,175,0.0,0.0,84,0.00,,,0.00,,2013-06-06 07:11:00,
2013-06-06 00:22:00,54.0,49.0,30.01,North,0,0.0,0.0,84,0.00,,,0.00,,2013-06-06 07:22:00,
2013-06-06 00:32:00,54.0,50.0,30.01,South,179,0.0,0.0,85,0.00,,,0.00,,2013-06-06 07:32:00,
2013-06-06 00:42:00,54.0,50.0,30.01,South,179,0.0,0.0,85,0.00,,,0.00,,2013-06-06 07:42:00,
2013-06-06 00:52:00,54.0,50.0,30.01,NNE,13,0.0,0.0,86,0.00,,,0.00,,2013-06-06 07:52:00,
2013-06-06 01:02:00,53.0,49.0,30.01,East,101,0.0,0.0,86,0.00,,,0.00,,2013-06-06 08:02:00,
2013-06-06 01:11:00,53.0,49.0,30.01,East,101,0.0,0.0,86,0.00,,,0.00,,2013-06-06 08:11:00,
2013-06-06 01:22:00,53.0,49.0,30.03,NE,50,0.0,0.0,86,0.00,,,0.00,,2013-06-06 08:22:00,
2013-06-06 01:31:00,52.0,48.0,30.01,ESE,108,0.0,0.0,87,0.00,,,0.00,,2013-06-06 08:31:00,
2013-06-06 01:42:00,53.0,49.0,30.01,SW,235,0.0,0.0,87,0.00,,,0.00,,2013-06-06 08:42:00,
2013-06-06 01:52:00,53.0,49.0,30.01,SW,235,0.0,0.0,87,0.00,,,0.00,,2013-06-06 08:52:00,
2013-06-06 02:01:00,52.0,48.0,30.01,ENE,64,0.0,0.0,87,0.00,,,0.00,,2013-06-06 09:01:00,
2013-06-06 02:12:00,52.0,48.0,30.01,ENE,64,0.0,0.0,87,0.00,,,0.00,,2013-06-06 09:12:00,
2013-06-06 02:22:00,52.0,48.0,30.01,SSE,150,0.0,0.0,87,0.00,,,0.00,,2013-06-06 09:22:00,
2013-06-06 02:32:00,52.0,49.0,30.01,NNE,12,0.0,0.0,88,0.00,,,0.00,,2013-06-06 09:32:00,
2013-06-06 02:42:00,52.0,49.0,30.01,NNE,12,0.0,0.0,88,0.00,,,0.00,,2013-06-06 09:42:00,
2013-06-06 02:53:00,52.0,49.0,30.01,NW,305,0.0,0.0,88,0.00,,,0.00,,2013-06-06 09:53:00,
2013-06-06 03:02:00,51.0,48.0,30.01,East,87,0.0,0.0,88,0.00,,,0.00,,2013-06-06 10:02:00,
2013-06-06 03:12:00,52.0,49.0,30.03,NW,315,0.0,0.0,88,0.00,,,0.00,,2013-06-06 10:12:00,
2013-06-06 03:22:00,52.0,49.0,30.03,NW,315,0.0,0.0,88,0.00,,,0.00,,2013-06-06 10:22:00,
2013-06-06 03:32:00,51.0,48.0,30.01,SE,138,0.0,0.0,88,0.00,,,0.00,,2013-06-06 10:32:00,
2013-06-06 03:41:00,51.0,48.0,30.01,SE,138,0.0,0.0,88,0.00,,,0.00,,2013-06-06 10:41:00,
2013-06-06 03:52:00,50.0,47.0,30.03,SE,135,0.0,0.0,88,0.00,,,0.00,,2013-06-06 10:52:00,
2013-06-06 04:02:00,51.0,48.0,30.03,NNW,327,0.0,0.0,89,0.00,,,0.00,,2013-06-06 11:02:00,
2013-06-06 04:22:00,50.0,47.0,30.03,ENE,61,0.0,0.0,89,0.00,,,0.00,,2013-06-06 11:22:00,
2013-06-06 04:32:00,50.0,47.0,30.03,SW,232,0.0,0.0,88,0.00,,,0.00,,2013-06-06 11:32:00,
2013-06-06 04:42:00,50.0,47.0,30.03,SW,232,0.0,0.0,88,0.00,,,0.00,,2013-06-06 11:42:00,
2013-06-06 04:52:00,49.0,46.0,30.03,East,99,0.0,0.0,88,0.00,,,0.00,,2013-06-06 11:52:00,
2013-06-06 05:02:00,50.0,47.0,30.03,NNW,328,0.0,0.0,89,0.00,,,0.00,,2013-06-06 12:02:00,
2013-06-06 05:12:00,50.0,47.0,30.03,NNW,328,0.0,0.0,89,0.00,,,0.00,,2013-06-06 12:12:00,
2013-06-06 05:22:00,50.0,47.0,30.03,South,177,0.0,0.0,89,0.00,,,0.00,,2013-06-06 12:22:00,
2013-06-06 05:32:00,50.0,47.0,30.04,SSE,156,0.0,0.0,88,0.00,,,0.00,,2013-06-06 12:32:00,
2013-06-06 05:42:00,50.0,47.0,30.04,East,99,0.0,0.0,88,0.00,,,0.00,,2013-06-06 12:42:00,
2013-06-06 05:52:00,50.0,47.0,30.04,East,99,0.0,0.0,88,0.00,,,0.00,,2013-06-06 12:52:00,
2013-06-06 06:02:00,50.0,47.0,30.04,SSE,160,0.0,0.0,89,0.00,,,0.00,,2013-06-06 13:02:00,
2013-06-06 06:12:00,51.0,48.0,30.04,SE,126,0.0,0.0,89,0.00,,,0.00,,2013-06-06 13:12:00,
2013-06-06 06:22:00,51.0,48.0,30.04,SE,126,0.0,0.0,89,0.00,,,0.00,,2013-06-06 13:22:00,
2013-06-06 06:32:00,52.0,49.0,30.04,NW,309,0.0,0.0,89,0.00,,,0.00,,2013-06-06 13:32:00,
2013-06-06 06:42:00,52.0,49.0,30.04,NW,309,0.0,0.0,89,0.00,,,0.00,,2013-06-06 13:42:00,
2013-06-06 06:52:00,52.0,49.0,30.04,SSW,212,0.0,0.0,89,0.00,,,0.00,,2013-06-06 13:52:00,
2013-06-06 07:12:00,54.0,51.0,30.04,West,265,0.0,0.0,88,0.00,,,0.00,,2013-06-06 14:12:00,
2013-06-06 07:22:00,57.0,53.0,30.04,SSW,213,0.0,0.0,86,0.00,,,0.00,,2013-06-06 14:22:00,
2013-06-06 07:32:00,61.0,52.0,30.04,North,10,0.0,0.0,72,0.00,,,0.00,,2013-06-06 14:32:00,
2013-06-06 07:42:00,61.0,52.0,30.04,North,10,0.0,0.0,72,0.00,,,0.00,,2013-06-06 14:42:00,
2013-06-06 07:52:00,64.0,53.0,30.04,NW,312,0.0,0.0,67,0.00,,,0.00,,2013-06-06 14:52:00,
2013-06-06 08:02:00,65.0,52.0,30.04,ESE,103,0.0,1.0,62,0.00,,,0.00,,2013-06-06 15:02:00,
2013-06-06 08:22:00,66.0,51.0,30.04,West,272,0.0,0.0,59,0.00,,,0.00,,2013-06-06 15:22:00,
2013-06-06 08:32:00,68.0,52.0,30.04,West,264,1.0,2.0,57,0.00,,,0.00,,2013-06-06 15:32:00,
2013-06-06 08:42:00,68.0,52.0,30.04,West,264,1.0,2.0,57,0.00,,,0.00,,2013-06-06 15:42:00,
2013-06-06 08:53:00,69.0,52.0,30.04,NW,320,0.0,2.0,54,0.00,,,0.00,,2013-06-06 15:53:00,
2013-06-06 09:02:00,70.0,53.0,30.04,WNW,302,0.0,2.0,55,0.00,,,0.00,,2013-06-06 16:02:00,
2013-06-06 09:12:00,70.0,53.0,30.04,WNW,302,0.0,2.0,55,0.00,,,0.00,,2013-06-06 16:12:00,
2013-06-06 09:22:00,72.0,54.0,30.04,West,276,2.0,3.0,54,0.00,,,0.00,,2013-06-06 16:22:00,
2013-06-06 09:33:00,72.0,55.0,30.04,West,265,2.0,5.0,55,0.00,,,0.00,,2013-06-06 16:33:00,
2013-06-06 09:42:00,72.0,55.0,30.04,West,265,2.0,5.0,55,0.00,,,0.00,,2013-06-06 16:42:00,
2013-06-06 09:53:00,72.0,56.0,30.04,NNW,343,1.0,6.0,57,0.00,,,0.00,,2013-06-06 16:53:00,
2013-06-06 10:02:00,74.0,56.0,30.04,West,265,4.0,6.0,54,0.00,,,0.00,,2013-06-06 17:02:00,
2013-06-06 10:12:00,74.0,57.0,30.04,WSW,246,3.0,7.0,56,0.00,,,0.00,,2013-06-06 17:12:00,
2013-06-06 10:22:00,74.0,57.0,30.04,WSW,246,3.0,7.0,56,0.00,,,0.00,,2013-06-06 17:22:00,
2013-06-06 10:42:00,74.0,57.0,30.04,NW,304,2.0,6.0,56,0.00,,,0.00,,2013-06-06 17:42:00,
2013-06-06 10:53:00,75.0,58.0,30.04,NW,306,3.0,7.0,56,0.00,,,0.00,,2013-06-06 17:53:00,
2013-06-06 11:02:00,75.0,59.0,30.04,WNW,290,3.0,7.0,57,0.00,,,0.00,,2013-06-06 18:02:00,
2013-06-06 11:12:00,75.0,59.0,30.04,WNW,290,3.0,7.0,57,0.00,,,0.00,,2013-06-06 18:12:00,
2013-06-06 11:22:00,76.0,59.0,30.04,West,271,4.0,7.0,56,0.00,,,0.00,,2013-06-06 18:22:00,
2013-06-06 11:33:00,76.0,59.0,30.04,WNW,294,3.0,8.0,56,0.00,,,0.00,,2013-06-06 18:33:00,
2013-06-06 11:42:00,76.0,59.0,30.04,WNW,294,3.0,8.0,56,0.00,,,0.00,,2013-06-06 18:42:00,
2013-06-06 11:53:00,77.0,59.0,30.03,West,279,3.0,7.0,54,0.00,,,0.00,,2013-06-06 18:53:00,
2013-06-06 12:02:00,78.0,61.0,30.03,West,275,5.0,8.0,55,0.00,,,0.00,,2013-06-06 19:02:00,
2013-06-06 12:12:00,78.0,61.0,30.03,West,275,5.0,8.0,55,0.00,,,0.00,,2013-06-06 19:12:00,
2013-06-06 12:23:00,78.0,62.0,30.03,WSW,258,5.0,10.0,57,0.00,,,0.00,,2013-06-06 19:23:00,
2013-06-06 12:32:00,78.0,61.0,30.04,West,279,5.0,9.0,56,0.00,,,0.00,,2013-06-06 19:32:00,
2013-06-06 12:42:00,78.0,61.0,30.04,West,279,5.0,9.0,56,0.00,,,0.00,,2013-06-06 19:42:00,
2013-06-06 12:53:00,78.0,59.0,30.03,WNW,283,4.0,8.0,53,0.00,,,0.00,,2013-06-06 19:53:00,
2013-06-06 13:12:00,79.0,60.0,30.03,WNW,295,1.0,9.0,53,0.00,,,0.00,,2013-06-06 20:12:00,
2013-06-06 13:22:00,79.0,60.0,30.03,West,266,1.0,11.0,52,0.00,,,0.00,,2013-06-06 20:22:00,
2013-06-06 13:32:00,80.0,60.0,30.03,WNW,284,3.0,9.0,51,0.00,,,0.00,,2013-06-06 20:32:00,
2013-06-06 13:42:00,80.0,60.0,30.03,WNW,284,3.0,9.0,51,0.00,,,0.00,,2013-06-06 20:42:00,
2013-06-06 13:53:00,80.0,60.0,30.03,WNW,287,6.0,10.0,51,0.00,,,0.00,,2013-06-06 20:53:00,
2013-06-06 14:02:00,81.0,60.0,30.03,WNW,284,4.0,11.0,49,0.00,,,0.00,,2013-06-06 21:02:00,
2013-06-06 14:12:00,81.0,60.0,30.03,WNW,284,4.0,11.0,49,0.00,,,0.00,,2013-06-06 21:12:00,
2013-06-06 14:22:00,81.0,58.0,30.03,West,273,1.0,11.0,46,0.00,,,0.00,,2013-06-06 21:22:00,
2013-06-06 14:33:00,82.0,59.0,30.03,West,281,4.0,8.0,45,0.00,,,0.00,,2013-06-06 21:33:00,
2013-06-06 14:43:00,82.0,59.0,30.03,West,281,4.0,8.0,45,0.00,,,0.00,,2013-06-06 21:43:00,
2013-06-06 14:53:00,82.0,57.0,30.03,NW,323,3.0,9.0,42,0.00,,,0.00,,2013-06-06 21:53:00,
2013-06-06 15:02:00,83.0,54.0,30.03,NW,308,4.0,9.0,37,0.00,,,0.00,,2013-06-06 22:02:00,
2013-06-06 15:12:00,83.0,54.0,30.03,NW,308,4.0,9.0,37,0.00,,,0.00,,2013-06-06 22:12:00,
2013-06-06 15:22:00,84.0,53.0,30.03,NW,310,4.0,8.0,35,0.00,,,0.00,,2013-06-06 22:22:00,
2013-06-06 15:33:00,83.0,54.0,30.01,NW,323,3.0,7.0,37,0.00,,,0.00,,2013-06-06 22:33:00,
2013-06-06 15:43:00,83.0,54.0,30.01,NW,323,3.0,7.0,37,0.00,,,0.00,,2013-06-06 22:43:00,
2013-06-06 15:53:00,84.0,54.0,30.01,North,354,0.0,7.0,36,0.00,,,0.00,,2013-06-06 22:53:00,
2013-06-06 16:02:00,85.0,55.0,30.01,WNW,290,3.0,10.0,36,0.00,,,0.00,,2013-06-06 23:02:00,
2013-06-06 16:12:00,85.0,55.0,30.01,WNW,290,3.0,10.0,36,0.00,,,0.00,,2013-06-06 23:12:00,
2013-06-06 16:22:00,85.0,56.0,30.01,West,267,4.0,8.0,37,0.00,,,0.00,,2013-06-06 23:22:00,
2013-06-06 16:33:00,84.0,55.0,30.01,WNW,292,4.0,12.0,37,0.00,,,0.00,,2013-06-06 23:33:00,
2013-06-06 16:42:00,84.0,55.0,30.01,WNW,292,4.0,12.0,37,0.00,,,0.00,,2013-06-06 23:42:00,
2013-06-06 16:52:00,83.0,55.0,30.01,WNW,294,4.0,9.0,38,0.00,,,0.00,,2013-06-06 23:52:00,
2013-06-06 17:02:00,83.0,55.0,30.01,NNW,347,4.0,8.0,39,0.00,,,0.00,,2013-06-07 00:02:00,
2013-06-06 17:12:00,83.0,55.0,30.01,NNW,347,4.0,8.0,39,0.00,,,0.00,,2013-06-07 00:12:00,
2013-06-06 17:21:00,83.0,54.0,30.01,North,350,4.0,8.0,37,0.00,,,0.00,,2013-06-07 00:21:00,
2013-06-06 17:32:00,83.0,53.0,30.01,NW,311,5.0,9.0,36,0.00,,,0.00,,2013-06-07 00:32:00,
2013-06-06 17:42:00,83.0,53.0,30.01,NW,311,5.0,9.0,36,0.00,,,0.00,,2013-06-07 00:42:00,
2013-06-06 17:52:00,84.0,53.0,30.01,WNW,284,4.0,8.0,35,0.00,,,0.00,,2013-06-07 00:52:00,
2013-06-06 18:02:00,83.0,55.0,30.01,NW,310,3.0,9.0,38,0.00,,,0.00,,2013-06-07 01:02:00,
2013-06-06 18:11:00,83.0,55.0,30.01,NW,310,3.0,9.0,38,0.00,,,0.00,,2013-06-07 01:11:00,
2013-06-06 18:22:00,83.0,54.0,30.01,West,267,4.0,10.0,37,0.00,,,0.00,,2013-06-07 01:22:00,
2013-06-06 18:32:00,83.0,53.0,30.01,NW,324,3.0,8.0,36,0.00,,,0.00,,2013-06-07 01:32:00,
2013-06-06 18:42:00,83.0,53.0,30.01,NW,324,3.0,8.0,36,0.00,,,0.00,,2013-06-07 01:42:00,
2013-06-06 18:52:00,79.0,51.0,30.01,NW,305,3.0,8.0,38,0.00,,,0.00,,2013-06-07 01:52:00,
2013-06-06 19:02:00,78.0,51.0,30.01,WNW,302,0.0,6.0,39,0.00,,,0.00,,2013-06-07 02:02:00,
2013-06-06 19:12:00,78.0,51.0,30.01,WNW,302,0.0,6.0,39,0.00,,,0.00,,2013-06-07 02:12:00,
2013-06-06 19:22:00,81.0,54.0,30.01,WSW,242,2.0,6.0,39,0.00,,,0.00,,2013-06-07 02:22:00,
2013-06-06 19:32:00,83.0,55.0,30.01,West,273,4.0,9.0,39,0.00,,,0.00,,2013-06-07 02:32:00,
2013-06-06 19:42:00,83.0,55.0,30.01,West,273,4.0,9.0,39,0.00,,,0.00,,2013-06-07 02:42:00,
2013-06-06 19:52:00,82.0,55.0,30.01,West,279,0.0,5.0,39,0.00,,,0.00,,2013-06-07 02:52:00,
2013-06-06 20:02:00,78.0,54.0,30.01,NW,308,2.0,4.0,43,0.00,,,0.00,,2013-06-07 03:02:00,
2013-06-06 20:11:00,78.0,54.0,30.01,NW,308,2.0,4.0,43,0.00,,,0.00,,2013-06-07 03:11:00,
2013-06-06 20:22:00,76.0,55.0,30.01,West,270,3.0,5.0,48,0.00,,,0.00,,2013-06-07 03:22:00,
2013-06-06 20:32:00,75.0,55.0,30.01,WNW,283,2.0,7.0,49,0.00,,,0.00,,2013-06-07 03:32:00,
2013-06-06 20:43:00,75.0,55.0,30.01,WNW,283,2.0,7.0,49,0.00,,,0.00,,2013-06-07 03:43:00,
2013-06-06 20:53:00,73.0,55.0,30.01,WSW,254,3.0,7.0,53,0.00,,,0.00,,2013-06-07 03:53:00,
2013-06-06 21:02:00,71.0,54.0,30.01,WSW,258,0.0,5.0,56,0.00,,,0.00,,2013-06-07 04:02:00,
2013-06-06 21:12:00,71.0,54.0,30.01,WSW,258,0.0,5.0,56,0.00,,,0.00,,2013-06-07 04:12:00,
2013-06-06 21:22:00,68.0,54.0,30.01,WSW,258,1.0,3.0,60,0.00,,,0.00,,2013-06-07 04:22:00,
2013-06-06 21:33:00,65.0,53.0,30.03,SW,225,2.0,2.0,64,0.00,,,0.00,,2013-06-07 04:33:00,
2013-06-06 21:42:00,65.0,53.0,30.03,SW,225,2.0,2.0,64,0.00,,,0.00,,2013-06-07 04:42:00,
2013-06-06 21:53:00,65.0,53.0,30.03,SW,231,1.0,5.0,64,0.00,,,0.00,,2013-06-07 04:53:00,
2013-06-06 22:02:00,64.0,52.0,30.03,SSW,198,1.0,2.0,65,0.00,,,0.00,,2013-06-07 05:02:00,
2013-06-06 22:11:00,64.0,52.0,30.03,SSW,198,1.0,2.0,65,0.00,,,0.00,,2013-06-07 05:11:00,
2013-06-06 22:22:00,65.0,52.0,30.04,SSW,197,1.0,3.0,62,0.00,,,0.00,,2013-06-07 05:22:00,
2013-06-06 22:31:00,65.0,51.0,30.06,West,272,1.0,5.0,61,0.00,,,0.00,,2013-06-07 05:31:00,
2013-06-06 22:42:00,65.0,51.0,30.06,West,272,1.0,5.0,61,0.00,,,0.00,,2013-06-07 05:42:00,
2013-06-06 22:52:00,66.0,52.0,30.06,West,272,3.0,6.0,60,0.00,,,0.00,,2013-06-07 05:52:00,
2013-06-06 23:01:00,66.0,51.0,30.06,West,272,2.0,7.0,59,0.00,,,0.00,,2013-06-07 06:01:00,
2013-06-06 23:12:00,66.0,51.0,30.06,West,272,2.0,7.0,59,0.00,,,0.00,,2013-06-07 06:12:00,
2013-06-06 23:21:00,62.0,50.0,30.06,West,277,2.0,2.0,65,0.00,,,0.00,,2013-06-07 06:21:00,
2013-06-06 23:32:00,60.0,50.0,30.06,WSW,239,0.0,0.0,70,0.00,,,0.00,,2013-06-07 06:32:00,
2013-06-06 23:41:00,60.0,50.0,30.06,WSW,239,0.0,0.0,70,0.00,,,0.00,,2013-06-07 06:41:00,
2013-06-06 23:52:00,58.0,50.0,30.08,ENE,62,0.0,0.0,74,0.00,,,0.00,,2013-06-07 06:52:00,